sensor_id;sensor_type;location;lat;lon;timestamp;P1;durP1;ratioP1;P2;durP2;ratioP2
18899;SDS011;9582;52.018;6.306;2023-12-22T00:01:42;9.63;;;1.87;;
18899;SDS011;9582;52.018;6.306;2023-12-22T00:04:09;9.00;;;1.97;;
18899;SDS011;9582;52.018;6.306;2023-12-22T00:06:37;9.07;;;1.90;;
18899;SDS011;9582;52.018;6.306;2023-12-22T00:09:03;14.13;;;2.20;;
18899;SDS011;9582;52.018;6.306;2023-12-22T00:11:30;6.50;;;1.33;;
18899;SDS011;9582;52.018;6.306;2023-12-22T00:13:57;13.07;;;1.77;;
18899;SDS011;9582;52.018;6.306;2023-12-22T00:16:23;15.10;;;2.60;;
18899;SDS011;9582;52.018;6.306;2023-12-22T00:18:50;11.60;;;2.30;;
18899;SDS011;9582;52.018;6.306;2023-12-22T00:21:17;10.10;;;2.40;;
18899;SDS011;9582;52.018;6.306;2023-12-22T00:23:45;7.17;;;1.77;;
18899;SDS011;9582;52.018;6.306;2023-12-22T00:26:12;3.43;;;0.97;;
18899;SDS011;9582;52.018;6.306;2023-12-22T00:28:40;7.47;;;1.73;;
18899;SDS011;9582;52.018;6.306;2023-12-22T00:31:07;5.93;;;1.23;;
18899;SDS011;9582;52.018;6.306;2023-12-22T00:33:33;7.67;;;1.37;;
18899;SDS011;9582;52.018;6.306;2023-12-22T00:36:00;3.47;;;0.83;;
18899;SDS011;9582;52.018;6.306;2023-12-22T00:38:26;13.87;;;1.60;;
18899;SDS011;9582;52.018;6.306;2023-12-22T00:40:54;10.17;;;1.50;;
18899;SDS011;9582;52.018;6.306;2023-12-22T00:43:21;6.63;;;1.50;;
18899;SDS011;9582;52.018;6.306;2023-12-22T00:45:48;7.73;;;1.83;;
18899;SDS011;9582;52.018;6.306;2023-12-22T00:48:15;9.00;;;1.83;;
18899;SDS011;9582;52.018;6.306;2023-12-22T00:50:41;6.70;;;1.83;;
18899;SDS011;9582;52.018;6.306;2023-12-22T00:53:08;10.00;;;1.70;;
18899;SDS011;9582;52.018;6.306;2023-12-22T00:55:35;9.10;;;1.70;;
18899;SDS011;9582;52.018;6.306;2023-12-22T00:58:03;7.73;;;1.60;;
18899;SDS011;9582;52.018;6.306;2023-12-22T01:00:29;10.00;;;1.60;;
18899;SDS011;9582;52.018;6.306;2023-12-22T01:02:56;8.03;;;2.03;;
18899;SDS011;9582;52.018;6.306;2023-12-22T01:05:23;4.33;;;1.40;;
18899;SDS011;9582;52.018;6.306;2023-12-22T01:07:49;11.70;;;1.90;;
18899;SDS011;9582;52.018;6.306;2023-12-22T01:10:16;3.27;;;0.63;;
18899;SDS011;9582;52.018;6.306;2023-12-22T01:12:43;7.10;;;1.80;;
18899;SDS011;9582;52.018;6.306;2023-12-22T01:15:11;5.87;;;1.70;;
18899;SDS011;9582;52.018;6.306;2023-12-22T01:17:37;10.37;;;1.07;;
18899;SDS011;9582;52.018;6.306;2023-12-22T01:20:04;6.93;;;1.07;;
18899;SDS011;9582;52.018;6.306;2023-12-22T01:22:31;2.50;;;0.83;;
18899;SDS011;9582;52.018;6.306;2023-12-22T01:24:59;3.53;;;0.93;;
18899;SDS011;9582;52.018;6.306;2023-12-22T01:27:26;1.13;;;0.80;;
18899;SDS011;9582;52.018;6.306;2023-12-22T01:29:53;3.83;;;0.87;;
18899;SDS011;9582;52.018;6.306;2023-12-22T01:32:21;5.67;;;1.33;;
18899;SDS011;9582;52.018;6.306;2023-12-22T01:34:47;4.90;;;0.97;;
18899;SDS011;9582;52.018;6.306;2023-12-22T01:37:14;3.50;;;1.03;;
18899;SDS011;9582;52.018;6.306;2023-12-22T01:39:41;9.20;;;1.63;;
18899;SDS011;9582;52.018;6.306;2023-12-22T01:42:07;3.30;;;0.90;;
18899;SDS011;9582;52.018;6.306;2023-12-22T01:44:34;6.37;;;1.77;;
18899;SDS011;9582;52.018;6.306;2023-12-22T01:47:00;3.93;;;0.90;;
18899;SDS011;9582;52.018;6.306;2023-12-22T01:49:28;5.00;;;0.90;;
18899;SDS011;9582;52.018;6.306;2023-12-22T01:51:55;3.53;;;0.70;;
18899;SDS011;9582;52.018;6.306;2023-12-22T01:54:22;4.43;;;1.10;;
18899;SDS011;9582;52.018;6.306;2023-12-22T01:56:50;2.97;;;1.03;;
18899;SDS011;9582;52.018;6.306;2023-12-22T01:59:16;2.77;;;0.63;;
18899;SDS011;9582;52.018;6.306;2023-12-22T02:01:43;4.40;;;1.20;;
18899;SDS011;9582;52.018;6.306;2023-12-22T02:04:11;3.93;;;1.20;;
18899;SDS011;9582;52.018;6.306;2023-12-22T02:06:39;2.63;;;0.87;;
18899;SDS011;9582;52.018;6.306;2023-12-22T02:09:07;2.97;;;0.90;;
18899;SDS011;9582;52.018;6.306;2023-12-22T02:11:34;6.53;;;1.23;;
18899;SDS011;9582;52.018;6.306;2023-12-22T02:14:01;2.03;;;0.60;;
18899;SDS011;9582;52.018;6.306;2023-12-22T02:16:31;3.70;;;0.90;;
18899;SDS011;9582;52.018;6.306;2023-12-22T02:19:04;2.33;;;0.60;;
18899;SDS011;9582;52.018;6.306;2023-12-22T02:24:28;2.60;;;0.77;;
18899;SDS011;9582;52.018;6.306;2023-12-22T02:26:55;3.37;;;0.73;;
18899;SDS011;9582;52.018;6.306;2023-12-22T02:29:29;3.63;;;0.90;;
18899;SDS011;9582;52.018;6.306;2023-12-22T02:31:59;2.17;;;0.77;;
18899;SDS011;9582;52.018;6.306;2023-12-22T02:34:32;6.13;;;1.17;;
18899;SDS011;9582;52.018;6.306;2023-12-22T02:37:04;0.50;;;0.23;;
18899;SDS011;9582;52.018;6.306;2023-12-22T02:39:35;1.93;;;0.83;;
18899;SDS011;9582;52.018;6.306;2023-12-22T02:42:02;3.73;;;1.23;;
18899;SDS011;9582;52.018;6.306;2023-12-22T02:44:30;4.10;;;1.00;;
18899;SDS011;9582;52.018;6.306;2023-12-22T02:46:57;8.90;;;1.40;;
18899;SDS011;9582;52.018;6.306;2023-12-22T02:49:24;2.87;;;1.00;;
18899;SDS011;9582;52.018;6.306;2023-12-22T02:51:50;4.77;;;1.30;;
18899;SDS011;9582;52.018;6.306;2023-12-22T02:54:17;5.90;;;1.10;;
18899;SDS011;9582;52.018;6.306;2023-12-22T02:56:46;6.97;;;1.87;;
18899;SDS011;9582;52.018;6.306;2023-12-22T02:59:13;7.83;;;2.10;;
18899;SDS011;9582;52.018;6.306;2023-12-22T03:01:39;6.97;;;1.47;;
18899;SDS011;9582;52.018;6.306;2023-12-22T03:04:06;6.07;;;1.40;;
18899;SDS011;9582;52.018;6.306;2023-12-22T03:06:33;6.20;;;1.53;;
18899;SDS011;9582;52.018;6.306;2023-12-22T03:08:59;5.77;;;1.50;;
18899;SDS011;9582;52.018;6.306;2023-12-22T03:11:26;5.90;;;1.60;;
18899;SDS011;9582;52.018;6.306;2023-12-22T03:13:54;8.10;;;2.27;;
18899;SDS011;9582;52.018;6.306;2023-12-22T03:16:20;10.03;;;2.10;;
18899;SDS011;9582;52.018;6.306;2023-12-22T03:18:47;2.13;;;0.80;;
18899;SDS011;9582;52.018;6.306;2023-12-22T03:21:16;3.77;;;0.80;;
18899;SDS011;9582;52.018;6.306;2023-12-22T03:23:43;7.10;;;1.03;;
18899;SDS011;9582;52.018;6.306;2023-12-22T03:26:10;4.73;;;1.13;;
18899;SDS011;9582;52.018;6.306;2023-12-22T03:28:37;4.97;;;1.07;;
18899;SDS011;9582;52.018;6.306;2023-12-22T03:31:05;8.63;;;1.63;;
18899;SDS011;9582;52.018;6.306;2023-12-22T03:33:32;4.27;;;1.13;;
18899;SDS011;9582;52.018;6.306;2023-12-22T03:35:59;5.27;;;1.10;;
18899;SDS011;9582;52.018;6.306;2023-12-22T03:38:25;2.67;;;0.80;;
18899;SDS011;9582;52.018;6.306;2023-12-22T03:40:52;2.23;;;0.77;;
18899;SDS011;9582;52.018;6.306;2023-12-22T03:43:19;0.30;;;0.30;;
18899;SDS011;9582;52.018;6.306;2023-12-22T03:45:45;2.70;;;0.53;;
18899;SDS011;9582;52.018;6.306;2023-12-22T03:48:13;4.97;;;0.90;;
18899;SDS011;9582;52.018;6.306;2023-12-22T03:50:40;4.03;;;0.87;;
18899;SDS011;9582;52.018;6.306;2023-12-22T03:53:06;4.00;;;1.40;;
18899;SDS011;9582;52.018;6.306;2023-12-22T03:55:33;3.43;;;1.17;;
18899;SDS011;9582;52.018;6.306;2023-12-22T03:58:00;2.87;;;1.17;;
18899;SDS011;9582;52.018;6.306;2023-12-22T04:00:27;3.83;;;2.13;;
18899;SDS011;9582;52.018;6.306;2023-12-22T04:02:54;1.00;;;0.40;;
18899;SDS011;9582;52.018;6.306;2023-12-22T04:05:22;1.90;;;0.70;;
18899;SDS011;9582;52.018;6.306;2023-12-22T04:07:49;1.97;;;0.47;;
18899;SDS011;9582;52.018;6.306;2023-12-22T04:10:16;2.00;;;0.60;;
18899;SDS011;9582;52.018;6.306;2023-12-22T04:12:42;1.03;;;0.87;;
18899;SDS011;9582;52.018;6.306;2023-12-22T04:15:09;2.17;;;0.90;;
18899;SDS011;9582;52.018;6.306;2023-12-22T04:17:36;2.97;;;0.80;;
18899;SDS011;9582;52.018;6.306;2023-12-22T04:20:03;2.13;;;0.50;;
18899;SDS011;9582;52.018;6.306;2023-12-22T04:22:32;4.03;;;1.20;;
18899;SDS011;9582;52.018;6.306;2023-12-22T04:24:58;3.07;;;0.60;;
18899;SDS011;9582;52.018;6.306;2023-12-22T04:27:25;1.97;;;0.70;;
18899;SDS011;9582;52.018;6.306;2023-12-22T04:29:52;0.73;;;0.50;;
18899;SDS011;9582;52.018;6.306;2023-12-22T04:32:18;8.57;;;1.13;;
18899;SDS011;9582;52.018;6.306;2023-12-22T04:34:45;3.73;;;1.10;;
18899;SDS011;9582;52.018;6.306;2023-12-22T04:37:11;2.37;;;0.90;;
18899;SDS011;9582;52.018;6.306;2023-12-22T04:39:39;5.73;;;1.00;;
18899;SDS011;9582;52.018;6.306;2023-12-22T04:42:06;5.30;;;1.00;;
18899;SDS011;9582;52.018;6.306;2023-12-22T04:44:33;4.57;;;1.23;;
18899;SDS011;9582;52.018;6.306;2023-12-22T04:46:59;4.40;;;1.00;;
18899;SDS011;9582;52.018;6.306;2023-12-22T04:49:26;3.73;;;1.13;;
18899;SDS011;9582;52.018;6.306;2023-12-22T04:51:53;6.83;;;1.30;;
18899;SDS011;9582;52.018;6.306;2023-12-22T04:54:19;4.03;;;1.00;;
18899;SDS011;9582;52.018;6.306;2023-12-22T04:56:47;6.93;;;1.20;;
18899;SDS011;9582;52.018;6.306;2023-12-22T04:59:14;3.73;;;1.10;;
18899;SDS011;9582;52.018;6.306;2023-12-22T05:01:40;12.40;;;1.63;;
18899;SDS011;9582;52.018;6.306;2023-12-22T05:04:08;6.17;;;1.03;;
18899;SDS011;9582;52.018;6.306;2023-12-22T05:06:34;6.60;;;1.30;;
18899;SDS011;9582;52.018;6.306;2023-12-22T05:09:01;3.37;;;1.00;;
18899;SDS011;9582;52.018;6.306;2023-12-22T05:11:28;3.43;;;0.93;;
18899;SDS011;9582;52.018;6.306;2023-12-22T05:13:56;6.07;;;1.07;;
18899;SDS011;9582;52.018;6.306;2023-12-22T05:16:23;7.60;;;1.30;;
18899;SDS011;9582;52.018;6.306;2023-12-22T05:18:50;4.70;;;0.80;;
18899;SDS011;9582;52.018;6.306;2023-12-22T05:21:17;5.87;;;1.40;;
18899;SDS011;9582;52.018;6.306;2023-12-22T05:23:43;3.77;;;1.10;;
18899;SDS011;9582;52.018;6.306;2023-12-22T05:26:10;5.23;;;1.70;;
18899;SDS011;9582;52.018;6.306;2023-12-22T05:28:42;8.47;;;1.63;;
18899;SDS011;9582;52.018;6.306;2023-12-22T05:31:10;9.00;;;1.60;;
18899;SDS011;9582;52.018;6.306;2023-12-22T05:33:36;10.83;;;1.43;;
18899;SDS011;9582;52.018;6.306;2023-12-22T05:36:03;3.10;;;1.00;;
18899;SDS011;9582;52.018;6.306;2023-12-22T05:38:30;9.13;;;1.83;;
18899;SDS011;9582;52.018;6.306;2023-12-22T05:40:57;4.83;;;0.97;;
18899;SDS011;9582;52.018;6.306;2023-12-22T05:43:24;4.93;;;1.53;;
18899;SDS011;9582;52.018;6.306;2023-12-22T05:45:50;10.23;;;1.83;;
18899;SDS011;9582;52.018;6.306;2023-12-22T05:48:18;4.43;;;1.50;;
18899;SDS011;9582;52.018;6.306;2023-12-22T05:50:47;9.93;;;1.57;;
18899;SDS011;9582;52.018;6.306;2023-12-22T05:53:13;7.20;;;1.57;;
18899;SDS011;9582;52.018;6.306;2023-12-22T05:55:40;4.53;;;1.37;;
18899;SDS011;9582;52.018;6.306;2023-12-22T05:58:07;7.67;;;1.60;;
18899;SDS011;9582;52.018;6.306;2023-12-22T06:00:34;8.80;;;2.30;;
18899;SDS011;9582;52.018;6.306;2023-12-22T06:03:01;7.93;;;1.87;;
18899;SDS011;9582;52.018;6.306;2023-12-22T06:05:29;9.73;;;2.37;;
18899;SDS011;9582;52.018;6.306;2023-12-22T06:07:56;5.50;;;1.10;;
18899;SDS011;9582;52.018;6.306;2023-12-22T06:10:23;17.93;;;1.87;;
18899;SDS011;9582;52.018;6.306;2023-12-22T06:12:49;12.53;;;2.03;;
18899;SDS011;9582;52.018;6.306;2023-12-22T06:15:16;7.70;;;1.60;;
18899;SDS011;9582;52.018;6.306;2023-12-22T06:17:42;4.57;;;1.17;;
18899;SDS011;9582;52.018;6.306;2023-12-22T06:20:09;13.43;;;3.60;;
18899;SDS011;9582;52.018;6.306;2023-12-22T06:22:38;7.23;;;2.10;;
18899;SDS011;9582;52.018;6.306;2023-12-22T06:25:05;9.40;;;2.23;;
18899;SDS011;9582;52.018;6.306;2023-12-22T06:27:32;13.00;;;2.70;;
18899;SDS011;9582;52.018;6.306;2023-12-22T06:29:59;12.33;;;2.83;;
18899;SDS011;9582;52.018;6.306;2023-12-22T06:32:25;15.73;;;3.23;;
18899;SDS011;9582;52.018;6.306;2023-12-22T06:34:52;11.97;;;2.90;;
18899;SDS011;9582;52.018;6.306;2023-12-22T06:37:18;11.60;;;2.37;;
18899;SDS011;9582;52.018;6.306;2023-12-22T06:39:46;11.20;;;2.47;;
18899;SDS011;9582;52.018;6.306;2023-12-22T06:42:13;10.00;;;2.27;;
18899;SDS011;9582;52.018;6.306;2023-12-22T06:44:41;14.17;;;2.67;;
18899;SDS011;9582;52.018;6.306;2023-12-22T06:47:08;9.70;;;2.20;;
18899;SDS011;9582;52.018;6.306;2023-12-22T06:49:35;11.33;;;3.13;;
18899;SDS011;9582;52.018;6.306;2023-12-22T06:52:01;11.93;;;2.20;;
18899;SDS011;9582;52.018;6.306;2023-12-22T06:54:28;11.93;;;2.07;;
18899;SDS011;9582;52.018;6.306;2023-12-22T06:56:56;14.47;;;2.83;;
18899;SDS011;9582;52.018;6.306;2023-12-22T06:59:22;14.27;;;3.00;;
18899;SDS011;9582;52.018;6.306;2023-12-22T07:01:48;12.00;;;2.07;;
18899;SDS011;9582;52.018;6.306;2023-12-22T07:04:15;11.87;;;2.57;;
18899;SDS011;9582;52.018;6.306;2023-12-22T07:06:42;11.47;;;2.63;;
18899;SDS011;9582;52.018;6.306;2023-12-22T07:11:54;4.73;;;1.40;;
18899;SDS011;9582;52.018;6.306;2023-12-22T07:14:22;6.30;;;1.40;;
18899;SDS011;9582;52.018;6.306;2023-12-22T07:16:49;5.30;;;1.10;;
18899;SDS011;9582;52.018;6.306;2023-12-22T07:19:16;7.03;;;1.63;;
18899;SDS011;9582;52.018;6.306;2023-12-22T07:21:42;7.80;;;1.90;;
18899;SDS011;9582;52.018;6.306;2023-12-22T07:24:09;5.10;;;1.43;;
18899;SDS011;9582;52.018;6.306;2023-12-22T07:26:36;5.93;;;1.27;;
18899;SDS011;9582;52.018;6.306;2023-12-22T07:29:02;9.60;;;2.03;;
18899;SDS011;9582;52.018;6.306;2023-12-22T07:31:30;11.03;;;1.90;;
18899;SDS011;9582;52.018;6.306;2023-12-22T07:33:57;8.10;;;1.77;;
18899;SDS011;9582;52.018;6.306;2023-12-22T07:36:23;19.03;;;2.70;;
18899;SDS011;9582;52.018;6.306;2023-12-22T07:38:50;9.57;;;1.83;;
18899;SDS011;9582;52.018;6.306;2023-12-22T07:41:16;9.50;;;2.20;;
18899;SDS011;9582;52.018;6.306;2023-12-22T07:43:43;8.93;;;2.10;;
18899;SDS011;9582;52.018;6.306;2023-12-22T07:46:16;11.93;;;2.72;;
18899;SDS011;9582;52.018;6.306;2023-12-22T07:48:44;13.27;;;3.10;;
18899;SDS011;9582;52.018;6.306;2023-12-22T07:51:11;15.70;;;2.97;;
18899;SDS011;9582;52.018;6.306;2023-12-22T07:53:38;12.43;;;2.40;;
18899;SDS011;9582;52.018;6.306;2023-12-22T07:56:05;13.37;;;2.70;;
18899;SDS011;9582;52.018;6.306;2023-12-22T07:58:32;11.17;;;2.17;;
18899;SDS011;9582;52.018;6.306;2023-12-22T08:00:58;11.70;;;2.00;;
18899;SDS011;9582;52.018;6.306;2023-12-22T08:03:25;14.63;;;2.67;;
18899;SDS011;9582;52.018;6.306;2023-12-22T08:05:54;14.43;;;2.57;;
18899;SDS011;9582;52.018;6.306;2023-12-22T08:08:21;9.57;;;1.60;;
18899;SDS011;9582;52.018;6.306;2023-12-22T08:10:47;8.33;;;2.17;;
18899;SDS011;9582;52.018;6.306;2023-12-22T08:13:14;9.60;;;2.30;;
18899;SDS011;9582;52.018;6.306;2023-12-22T08:15:43;9.43;;;2.27;;
18899;SDS011;9582;52.018;6.306;2023-12-22T08:18:09;8.47;;;1.50;;
18899;SDS011;9582;52.018;6.306;2023-12-22T08:20:36;13.27;;;2.90;;
18899;SDS011;9582;52.018;6.306;2023-12-22T08:23:04;9.87;;;1.27;;
18899;SDS011;9582;52.018;6.306;2023-12-22T08:25:31;12.47;;;2.63;;
18899;SDS011;9582;52.018;6.306;2023-12-22T08:27:57;12.50;;;3.03;;
18899;SDS011;9582;52.018;6.306;2023-12-22T08:30:24;9.43;;;2.23;;
18899;SDS011;9582;52.018;6.306;2023-12-22T08:32:51;8.90;;;2.23;;
18899;SDS011;9582;52.018;6.306;2023-12-22T08:35:18;7.73;;;1.87;;
18899;SDS011;9582;52.018;6.306;2023-12-22T08:37:45;10.27;;;2.17;;
18899;SDS011;9582;52.018;6.306;2023-12-22T08:40:13;8.33;;;1.83;;
18899;SDS011;9582;52.018;6.306;2023-12-22T08:42:40;6.43;;;2.13;;
18899;SDS011;9582;52.018;6.306;2023-12-22T08:45:07;8.73;;;1.90;;
18899;SDS011;9582;52.018;6.306;2023-12-22T08:47:34;11.80;;;2.43;;
18899;SDS011;9582;52.018;6.306;2023-12-22T08:50:00;13.70;;;3.17;;
18899;SDS011;9582;52.018;6.306;2023-12-22T08:52:29;13.63;;;2.80;;
18899;SDS011;9582;52.018;6.306;2023-12-22T08:54:56;14.13;;;3.10;;
18899;SDS011;9582;52.018;6.306;2023-12-22T08:57:24;12.47;;;2.70;;
18899;SDS011;9582;52.018;6.306;2023-12-22T08:59:52;6.83;;;1.87;;
18899;SDS011;9582;52.018;6.306;2023-12-22T09:02:19;12.63;;;2.63;;
18899;SDS011;9582;52.018;6.306;2023-12-22T09:04:46;6.23;;;1.80;;
18899;SDS011;9582;52.018;6.306;2023-12-22T09:07:12;10.73;;;2.07;;
18899;SDS011;9582;52.018;6.306;2023-12-22T09:09:39;12.73;;;2.73;;
18899;SDS011;9582;52.018;6.306;2023-12-22T09:12:06;6.87;;;1.67;;
18899;SDS011;9582;52.018;6.306;2023-12-22T09:14:34;7.50;;;2.53;;
18899;SDS011;9582;52.018;6.306;2023-12-22T09:17:01;11.50;;;2.40;;
18899;SDS011;9582;52.018;6.306;2023-12-22T09:19:27;10.00;;;2.57;;
18899;SDS011;9582;52.018;6.306;2023-12-22T09:21:54;11.80;;;2.53;;
18899;SDS011;9582;52.018;6.306;2023-12-22T09:24:20;14.53;;;2.73;;
18899;SDS011;9582;52.018;6.306;2023-12-22T09:26:47;8.75;;;2.40;;
18899;SDS011;9582;52.018;6.306;2023-12-22T09:29:17;9.90;;;2.57;;
18899;SDS011;9582;52.018;6.306;2023-12-22T09:31:45;21.03;;;3.33;;
18899;SDS011;9582;52.018;6.306;2023-12-22T09:34:11;10.97;;;2.80;;
18899;SDS011;9582;52.018;6.306;2023-12-22T09:36:38;10.57;;;2.53;;
18899;SDS011;9582;52.018;6.306;2023-12-22T09:39:05;5.17;;;1.33;;
18899;SDS011;9582;52.018;6.306;2023-12-22T09:41:32;12.27;;;1.97;;
18899;SDS011;9582;52.018;6.306;2023-12-22T09:43:58;7.33;;;1.10;;
18899;SDS011;9582;52.018;6.306;2023-12-22T09:46:26;10.03;;;1.53;;
18899;SDS011;9582;52.018;6.306;2023-12-22T09:48:55;10.57;;;1.40;;
18899;SDS011;9582;52.018;6.306;2023-12-22T09:51:22;9.60;;;2.10;;
18899;SDS011;9582;52.018;6.306;2023-12-22T09:53:49;8.57;;;1.67;;
18899;SDS011;9582;52.018;6.306;2023-12-22T09:56:17;11.50;;;1.77;;
18899;SDS011;9582;52.018;6.306;2023-12-22T09:58:45;3.67;;;1.30;;
18899;SDS011;9582;52.018;6.306;2023-12-22T10:01:13;7.13;;;1.87;;
18899;SDS011;9582;52.018;6.306;2023-12-22T10:03:40;6.73;;;1.50;;
18899;SDS011;9582;52.018;6.306;2023-12-22T10:06:10;5.73;;;1.10;;
18899;SDS011;9582;52.018;6.306;2023-12-22T10:08:37;10.63;;;2.80;;
18899;SDS011;9582;52.018;6.306;2023-12-22T10:11:05;12.43;;;1.77;;
18899;SDS011;9582;52.018;6.306;2023-12-22T10:13:34;5.13;;;1.37;;
18899;SDS011;9582;52.018;6.306;2023-12-22T10:16:03;9.60;;;2.17;;
18899;SDS011;9582;52.018;6.306;2023-12-22T10:18:31;4.47;;;1.03;;
18899;SDS011;9582;52.018;6.306;2023-12-22T10:20:59;3.80;;;1.07;;
18899;SDS011;9582;52.018;6.306;2023-12-22T10:23:27;3.70;;;1.00;;
18899;SDS011;9582;52.018;6.306;2023-12-22T10:25:54;3.37;;;0.83;;
18899;SDS011;9582;52.018;6.306;2023-12-22T10:28:23;6.03;;;1.43;;
18899;SDS011;9582;52.018;6.306;2023-12-22T10:30:52;4.07;;;1.17;;
18899;SDS011;9582;52.018;6.306;2023-12-22T10:33:21;9.60;;;1.63;;
18899;SDS011;9582;52.018;6.306;2023-12-22T10:35:47;3.30;;;0.70;;
18899;SDS011;9582;52.018;6.306;2023-12-22T10:38:17;4.43;;;1.60;;
18899;SDS011;9582;52.018;6.306;2023-12-22T10:40:46;3.57;;;1.00;;
18899;SDS011;9582;52.018;6.306;2023-12-22T10:43:13;4.00;;;1.27;;
18899;SDS011;9582;52.018;6.306;2023-12-22T10:45:40;9.40;;;1.80;;
18899;SDS011;9582;52.018;6.306;2023-12-22T10:48:07;7.83;;;2.33;;
18899;SDS011;9582;52.018;6.306;2023-12-22T10:50:34;7.53;;;1.90;;
18899;SDS011;9582;52.018;6.306;2023-12-22T10:53:01;7.67;;;1.77;;
18899;SDS011;9582;52.018;6.306;2023-12-22T10:55:27;9.17;;;1.97;;
18899;SDS011;9582;52.018;6.306;2023-12-22T10:57:55;5.97;;;1.57;;
18899;SDS011;9582;52.018;6.306;2023-12-22T11:00:22;5.93;;;1.10;;
18899;SDS011;9582;52.018;6.306;2023-12-22T11:02:49;4.20;;;1.57;;
18899;SDS011;9582;52.018;6.306;2023-12-22T11:05:24;4.23;;;1.27;;
18899;SDS011;9582;52.018;6.306;2023-12-22T11:07:54;6.93;;;1.47;;
18899;SDS011;9582;52.018;6.306;2023-12-22T11:10:21;5.43;;;1.70;;
18899;SDS011;9582;52.018;6.306;2023-12-22T11:12:49;7.17;;;1.83;;
18899;SDS011;9582;52.018;6.306;2023-12-22T11:15:19;7.03;;;1.77;;
18899;SDS011;9582;52.018;6.306;2023-12-22T11:17:46;8.47;;;1.70;;
18899;SDS011;9582;52.018;6.306;2023-12-22T11:20:16;6.40;;;1.73;;
18899;SDS011;9582;52.018;6.306;2023-12-22T11:22:44;7.73;;;1.73;;
18899;SDS011;9582;52.018;6.306;2023-12-22T11:25:11;3.87;;;1.60;;
18899;SDS011;9582;52.018;6.306;2023-12-22T11:27:40;5.30;;;2.10;;
18899;SDS011;9582;52.018;6.306;2023-12-22T11:30:08;5.87;;;1.53;;
18899;SDS011;9582;52.018;6.306;2023-12-22T11:32:38;4.17;;;1.40;;
18899;SDS011;9582;52.018;6.306;2023-12-22T11:35:06;5.17;;;1.17;;
18899;SDS011;9582;52.018;6.306;2023-12-22T11:37:34;6.00;;;1.57;;
18899;SDS011;9582;52.018;6.306;2023-12-22T11:40:02;6.53;;;0.90;;
18899;SDS011;9582;52.018;6.306;2023-12-22T11:42:31;0.93;;;0.30;;
18899;SDS011;9582;52.018;6.306;2023-12-22T11:45:01;1.53;;;0.73;;
18899;SDS011;9582;52.018;6.306;2023-12-22T11:47:29;4.10;;;0.70;;
18899;SDS011;9582;52.018;6.306;2023-12-22T11:49:57;3.60;;;1.27;;
18899;SDS011;9582;52.018;6.306;2023-12-22T11:52:26;3.67;;;1.30;;
18899;SDS011;9582;52.018;6.306;2023-12-22T11:54:54;5.73;;;1.80;;
18899;SDS011;9582;52.018;6.306;2023-12-22T12:00:07;7.70;;;1.77;;
18899;SDS011;9582;52.018;6.306;2023-12-22T12:02:56;5.20;;;1.40;;
18899;SDS011;9582;52.018;6.306;2023-12-22T12:05:24;4.27;;;1.90;;
18899;SDS011;9582;52.018;6.306;2023-12-22T12:07:51;5.33;;;1.60;;
18899;SDS011;9582;52.018;6.306;2023-12-22T12:13:16;5.47;;;1.47;;
18899;SDS011;9582;52.018;6.306;2023-12-22T12:15:50;4.70;;;1.60;;
18899;SDS011;9582;52.018;6.306;2023-12-22T12:18:21;7.20;;;1.60;;
18899;SDS011;9582;52.018;6.306;2023-12-22T12:20:49;5.57;;;1.60;;
18899;SDS011;9582;52.018;6.306;2023-12-22T12:23:16;5.30;;;1.10;;
18899;SDS011;9582;52.018;6.306;2023-12-22T12:25:43;9.17;;;1.57;;
18899;SDS011;9582;52.018;6.306;2023-12-22T12:28:10;2.97;;;1.27;;
18899;SDS011;9582;52.018;6.306;2023-12-22T12:30:37;4.63;;;1.37;;
18899;SDS011;9582;52.018;6.306;2023-12-22T12:33:08;4.83;;;1.27;;
18899;SDS011;9582;52.018;6.306;2023-12-22T12:35:37;5.50;;;1.23;;
18899;SDS011;9582;52.018;6.306;2023-12-22T12:38:05;4.77;;;1.60;;
18899;SDS011;9582;52.018;6.306;2023-12-22T12:40:32;0.77;;;0.63;;
18899;SDS011;9582;52.018;6.306;2023-12-22T12:43:00;5.47;;;1.10;;
18899;SDS011;9582;52.018;6.306;2023-12-22T12:45:27;3.30;;;0.60;;
18899;SDS011;9582;52.018;6.306;2023-12-22T12:47:55;3.10;;;1.20;;
18899;SDS011;9582;52.018;6.306;2023-12-22T12:50:22;5.07;;;1.50;;
18899;SDS011;9582;52.018;6.306;2023-12-22T12:52:49;2.23;;;0.97;;
18899;SDS011;9582;52.018;6.306;2023-12-22T12:55:18;6.70;;;1.30;;
18899;SDS011;9582;52.018;6.306;2023-12-22T12:57:46;0.50;;;0.50;;
18899;SDS011;9582;52.018;6.306;2023-12-22T13:00:14;5.57;;;1.30;;
18899;SDS011;9582;52.018;6.306;2023-12-22T13:02:42;1.30;;;0.77;;
18899;SDS011;9582;52.018;6.306;2023-12-22T13:05:08;4.80;;;1.03;;
18899;SDS011;9582;52.018;6.306;2023-12-22T13:07:45;3.33;;;0.80;;
18899;SDS011;9582;52.018;6.306;2023-12-22T13:10:20;5.60;;;1.27;;
18899;SDS011;9582;52.018;6.306;2023-12-22T13:12:47;6.90;;;1.40;;
18899;SDS011;9582;52.018;6.306;2023-12-22T13:15:16;5.50;;;1.50;;
18899;SDS011;9582;52.018;6.306;2023-12-22T13:17:43;2.30;;;0.73;;
18899;SDS011;9582;52.018;6.306;2023-12-22T13:20:10;2.67;;;0.83;;
18899;SDS011;9582;52.018;6.306;2023-12-22T13:22:37;2.20;;;0.60;;
18899;SDS011;9582;52.018;6.306;2023-12-22T13:25:05;4.23;;;1.30;;
18899;SDS011;9582;52.018;6.306;2023-12-22T13:27:37;7.70;;;1.70;;
18899;SDS011;9582;52.018;6.306;2023-12-22T13:30:10;4.47;;;1.37;;
18899;SDS011;9582;52.018;6.306;2023-12-22T13:32:37;6.33;;;1.40;;
18899;SDS011;9582;52.018;6.306;2023-12-22T13:35:03;0.63;;;0.43;;
18899;SDS011;9582;52.018;6.306;2023-12-22T13:37:31;3.23;;;1.10;;
18899;SDS011;9582;52.018;6.306;2023-12-22T13:39:57;6.10;;;1.53;;
18899;SDS011;9582;52.018;6.306;2023-12-22T13:42:25;1.63;;;0.80;;
18899;SDS011;9582;52.018;6.306;2023-12-22T13:44:53;6.77;;;1.37;;
18899;SDS011;9582;52.018;6.306;2023-12-22T13:47:20;4.40;;;0.80;;
18899;SDS011;9582;52.018;6.306;2023-12-22T13:49:48;4.97;;;1.33;;
18899;SDS011;9582;52.018;6.306;2023-12-22T13:52:24;4.43;;;1.00;;
18899;SDS011;9582;52.018;6.306;2023-12-22T13:54:52;7.93;;;1.57;;
18899;SDS011;9582;52.018;6.306;2023-12-22T13:57:21;4.93;;;1.03;;
18899;SDS011;9582;52.018;6.306;2023-12-22T13:59:48;4.17;;;0.87;;
18899;SDS011;9582;52.018;6.306;2023-12-22T14:02:16;4.10;;;0.70;;
18899;SDS011;9582;52.018;6.306;2023-12-22T14:04:43;4.47;;;1.00;;
18899;SDS011;9582;52.018;6.306;2023-12-22T14:07:09;3.80;;;0.80;;
18899;SDS011;9582;52.018;6.306;2023-12-22T14:09:36;4.50;;;1.40;;
18899;SDS011;9582;52.018;6.306;2023-12-22T14:12:03;6.07;;;0.90;;
18899;SDS011;9582;52.018;6.306;2023-12-22T14:14:30;8.63;;;1.40;;
18899;SDS011;9582;52.018;6.306;2023-12-22T14:16:57;7.13;;;1.30;;
18899;SDS011;9582;52.018;6.306;2023-12-22T14:19:25;5.23;;;0.93;;
18899;SDS011;9582;52.018;6.306;2023-12-22T14:21:52;4.27;;;1.10;;
18899;SDS011;9582;52.018;6.306;2023-12-22T14:24:18;5.07;;;1.20;;
18899;SDS011;9582;52.018;6.306;2023-12-22T14:26:54;6.50;;;1.57;;
18899;SDS011;9582;52.018;6.306;2023-12-22T14:29:21;8.00;;;0.63;;
18899;SDS011;9582;52.018;6.306;2023-12-22T14:31:49;4.80;;;1.00;;
18899;SDS011;9582;52.018;6.306;2023-12-22T14:34:16;2.67;;;0.80;;
18899;SDS011;9582;52.018;6.306;2023-12-22T14:36:44;4.63;;;0.83;;
18899;SDS011;9582;52.018;6.306;2023-12-22T14:39:11;3.53;;;1.43;;
18899;SDS011;9582;52.018;6.306;2023-12-22T14:41:38;1.60;;;1.20;;
18899;SDS011;9582;52.018;6.306;2023-12-22T14:44:06;4.70;;;1.60;;
18899;SDS011;9582;52.018;6.306;2023-12-22T14:46:32;7.57;;;0.80;;
18899;SDS011;9582;52.018;6.306;2023-12-22T14:48:59;4.20;;;1.20;;
18899;SDS011;9582;52.018;6.306;2023-12-22T14:51:26;5.83;;;0.93;;
18899;SDS011;9582;52.018;6.306;2023-12-22T14:53:54;6.00;;;1.63;;
18899;SDS011;9582;52.018;6.306;2023-12-22T14:56:21;6.20;;;0.73;;
18899;SDS011;9582;52.018;6.306;2023-12-22T14:58:47;3.47;;;1.40;;
18899;SDS011;9582;52.018;6.306;2023-12-22T15:01:14;3.57;;;1.43;;
18899;SDS011;9582;52.018;6.306;2023-12-22T15:03:40;4.57;;;1.13;;
18899;SDS011;9582;52.018;6.306;2023-12-22T15:06:07;3.73;;;1.33;;
18899;SDS011;9582;52.018;6.306;2023-12-22T15:08:34;1.90;;;0.43;;
18899;SDS011;9582;52.018;6.306;2023-12-22T15:11:02;3.97;;;1.10;;